Time;durP1;ratioP1;P1;durP2;ratioP2;P2;SDS_P1;SDS_P2;PMS_P1;PMS_P2;Temp;Humidity;BMP_temperature;BMP_pressure;BME280_temperature;BME280_humidity;BME280_pressure;Samples;Min_cycle;Max_cycle;Signal;HPM_P1;HPM_P2
2021/06/05 00:01:37;;;;;;;5.70;5.13;;;14.20;99.90;;;;;;7613731;23;20296;-69
2021/06/05 00:04:39;;;;;;;5.33;4.83;;;14.20;99.90;;;;;;7613729;23;20166;-69
2021/06/05 00:07:41;;;;;;;6.30;5.70;;;14.10;99.90;;;;;;7612764;23;20596;-69
2021/06/05 00:10:48;;;;;;;5.63;5.07;;;14.10;99.90;;;;;;7639338;23;20165;-69
2021/06/05 00:13:55;;;;;;;6.87;6.17;;;14.00;99.90;;;;;;7639062;23;20214;-69
2021/06/05 00:16:57;;;;;;;5.90;5.40;;;14.00;99.90;;;;;;7613636;23;20232;-69
2021/06/05 00:20:00;;;;;;;6.33;5.80;;;13.90;99.90;;;;;;7639050;23;20179;-69
2021/06/05 00:23:07;;;;;;;7.73;6.00;;;13.80;99.90;;;;;;7613615;23;20168;-69
2021/06/05 00:26:10;;;;;;;5.87;5.37;;;13.80;99.90;;;;;;7639396;23;20220;-69
2021/06/05 00:29:12;;;;;;;5.90;5.30;;;13.80;99.90;;;;;;7638551;23;20172;-69
2021/06/05 00:32:17;;;;;;;6.33;5.57;;;13.80;99.90;;;;;;7613171;23;20510;-69
2021/06/05 00:35:20;;;;;;;6.67;6.07;;;13.80;99.90;;;;;;7614340;23;20429;-69
2021/06/05 00:38:22;;;;;;;6.23;5.63;;;13.70;99.90;;;;;;7641687;23;20185;-69
2021/06/05 00:41:27;;;;;;;6.80;5.77;;;13.60;99.90;;;;;;7641487;23;20176;-69
2021/06/05 00:44:30;;;;;;;6.23;5.60;;;13.60;99.90;;;;;;7615114;23;20259;-69
2021/06/05 00:47:32;;;;;;;7.23;6.00;;;13.60;99.90;;;;;;7641644;23;20188;-69
2021/06/05 00:50:36;;;;;;;6.33;5.83;;;13.60;99.90;;;;;;7614693;23;20168;-69
2021/06/05 00:53:40;;;;;;;9.73;6.30;;;13.60;99.90;;;;;;7615525;23;20172;-69
2021/06/05 00:56:52;;;;;;;6.70;6.07;;;13.60;99.90;;;;;;7615085;23;20291;-69
2021/06/05 00:59:54;;;;;;;6.60;6.00;;;13.60;99.90;;;;;;7591240;23;20255;-69
2021/06/05 01:03:01;;;;;;;6.33;5.73;;;13.50;99.90;;;;;;7615401;23;20284;-69
2021/06/05 01:06:16;;;;;;;5.80;5.30;;;13.40;99.90;;;;;;7641176;23;20242;-69
2021/06/05 01:09:35;;;;;;;6.63;6.03;;;13.40;99.90;;;;;;7615089;23;20216;-69
2021/06/05 01:13:08;;;;;;;6.60;6.00;;;13.40;99.90;;;;;;7614651;23;20617;-69
2021/06/05 01:16:19;;;;;;;7.00;5.97;;;13.30;99.90;;;;;;7615245;23;20239;-69
2021/06/05 01:20:02;;;;;;;6.83;6.23;;;13.40;99.90;;;;;;7614536;23;20196;-69
2021/06/05 01:23:18;;;;;;;7.00;6.03;;;13.30;99.90;;;;;;7493445;23;20171;-69
2021/06/05 01:26:33;;;;;;;8.17;6.50;;;13.30;99.90;;;;;;7470006;23;20157;-69
2021/06/05 01:29:41;;;;;;;7.20;6.50;;;13.20;99.90;;;;;;7493147;23;20637;-69
2021/06/05 01:32:45;;;;;;;6.90;6.27;;;13.10;99.90;;;;;;7493432;23;20179;-69
2021/06/05 01:35:49;;;;;;;8.53;6.17;;;13.10;99.90;;;;;;7493015;23;20264;-69
2021/06/05 01:39:01;;;;;;;6.77;6.07;;;13.10;99.90;;;;;;7493009;23;20164;-69
2021/06/05 01:42:09;;;;;;;7.10;6.40;;;13.10;99.90;;;;;;7493129;23;20170;-69
2021/06/05 01:45:18;;;;;;;7.23;6.53;;;13.10;99.90;;;;;;7469864;23;20178;-69
2021/06/05 01:48:23;;;;;;;7.17;6.47;;;13.10;99.90;;;;;;7446913;23;20197;-69
2021/06/05 01:51:28;;;;;;;7.57;6.77;;;13.00;99.90;;;;;;7492859;23;20239;-69
2021/06/05 01:54:42;;;;;;;6.63;5.90;;;13.00;99.90;;;;;;7469306;23;20174;-69
2021/06/05 01:57:52;;;;;;;7.77;6.30;;;13.00;99.90;;;;;;7591514;23;20254;-69
2021/06/05 02:01:03;;;;;;;6.97;6.27;;;13.00;99.90;;;;;;7614929;23;20176;-69
2021/06/05 02:04:13;;;;;;;6.47;5.87;;;12.90;99.90;;;;;;7614304;23;20275;-69
2021/06/05 02:07:22;;;;;;;8.67;6.33;;;12.90;99.90;;;;;;7614650;23;20247;-69
2021/06/05 02:10:29;;;;;;;7.50;6.80;;;12.80;99.90;;;;;;7640826;23;20171;-69
2021/06/05 02:13:48;;;;;;;6.67;6.07;;;12.80;99.90;;;;;;7615967;23;20238;-69
2021/06/05 02:16:54;;;;;;;7.00;6.37;;;12.80;99.90;;;;;;7641006;23;20480;-69
2021/06/05 02:20:08;;;;;;;8.57;6.50;;;12.80;99.90;;;;;;7615128;23;20189;-69
2021/06/05 02:23:23;;;;;;;7.73;6.20;;;12.80;99.90;;;;;;7620303;23;20179;-69
2021/06/05 02:26:27;;;;;;;7.53;5.90;;;12.80;99.90;;;;;;7614645;23;20190;-69
2021/06/05 02:29:53;;;;;;;6.87;6.27;;;12.80;99.90;;;;;;7614453;23;20183;-69
2021/06/05 02:32:56;;;;;;;7.60;6.90;;;12.80;99.90;;;;;;7640662;23;20222;-69
2021/06/05 02:36:09;;;;;;;6.57;6.07;;;12.70;99.90;;;;;;7591279;23;20710;-69
2021/06/05 02:39:18;;;;;;;7.37;6.73;;;12.70;99.90;;;;;;7614173;23;20179;-69
2021/06/05 02:42:25;;;;;;;8.37;6.60;;;12.70;99.90;;;;;;7613886;23;20182;-69
2021/06/05 02:45:42;;;;;;;7.33;6.63;;;12.70;99.90;;;;;;7640363;23;20526;-69
2021/06/05 02:48:47;;;;;;;7.37;6.77;;;12.70;99.90;;;;;;7589373;23;20319;-69
2021/06/05 02:52:01;;;;;;;7.40;6.63;;;12.60;99.90;;;;;;7590704;23;20167;-69
2021/06/05 02:55:10;;;;;;;6.77;6.13;;;12.60;99.90;;;;;;7590484;23;20245;-69
2021/06/05 02:58:14;;;;;;;7.57;6.80;;;12.60;99.90;;;;;;7613595;23;20215;-70
2021/06/05 03:01:20;;;;;;;6.43;5.93;;;12.50;99.90;;;;;;7639913;23;20614;-69
2021/06/05 03:04:25;;;;;;;6.70;6.10;;;12.60;99.90;;;;;;7639745;23;20173;-69
2021/06/05 03:07:28;;;;;;;6.37;5.77;;;12.60;99.90;;;;;;7589531;23;20199;-70
2021/06/05 03:10:33;;;;;;;6.43;5.90;;;12.60;99.90;;;;;;7613505;23;20180;-69
2021/06/05 03:13:39;;;;;;;6.50;6.00;;;12.60;99.90;;;;;;7613832;23;20175;-69
2021/06/05 03:16:42;;;;;;;6.90;6.30;;;12.60;99.90;;;;;;7639748;23;20184;-69
2021/06/05 03:19:46;;;;;;;6.10;5.57;;;12.60;99.90;;;;;;7639588;23;20171;-69
2021/06/05 03:22:49;;;;;;;6.43;5.83;;;12.70;99.90;;;;;;7639925;23;20166;-69
2021/06/05 03:25:54;;;;;;;7.40;6.40;;;12.70;99.90;;;;;;7639261;23;20202;-69
2021/06/05 03:28:57;;;;;;;6.10;5.50;;;12.70;99.90;;;;;;7613212;23;20194;-70
2021/06/05 03:32:02;;;;;;;7.33;5.43;;;12.60;99.90;;;;;;7613683;23;20199;-69
2021/06/05 03:35:06;;;;;;;6.97;6.27;;;12.60;99.90;;;;;;7639279;23;20165;-69
2021/06/05 03:38:09;;;;;;;6.60;6.00;;;12.60;99.90;;;;;;7639236;23;20191;-69
2021/06/05 03:41:15;;;;;;;6.73;6.13;;;12.70;99.90;;;;;;7639121;23;20170;-69
2021/06/05 03:44:17;;;;;;;8.10;7.03;;;12.70;99.90;;;;;;7613702;23;20606;-69
2021/06/05 03:47:26;;;;;;;6.70;6.10;;;12.70;99.90;;;;;;7612873;23;20196;-69
2021/06/05 03:50:41;;;;;;;6.57;5.90;;;12.80;99.90;;;;;;7613463;23;20243;-70
2021/06/05 03:53:47;;;;;;;6.90;6.17;;;12.80;99.90;;;;;;7589814;23;20168;-69
2021/06/05 03:56:50;;;;;;;7.13;6.43;;;12.80;99.90;;;;;;7612215;23;20592;-69
2021/06/05 03:59:55;;;;;;;8.50;7.80;;;12.70;99.90;;;;;;7639439;23;20163;-69
2021/06/05 04:02:57;;;;;;;7.90;7.20;;;12.90;99.90;;;;;;7613266;23;20164;-69
2021/06/05 04:06:00;;;;;;;7.13;6.50;;;13.10;99.90;;;;;;7639422;23;20308;-69
2021/06/05 04:09:03;;;;;;;7.07;6.37;;;13.20;99.90;;;;;;7588566;23;20202;-69
2021/06/05 04:12:07;;;;;;;7.37;6.70;;;13.30;99.90;;;;;;7612847;23;20194;-70
2021/06/05 04:15:13;;;;;;;7.07;6.33;;;13.40;99.90;;;;;;7640108;23;20483;-69
2021/06/05 04:18:21;;;;;;;7.23;6.63;;;13.50;99.90;;;;;;7639625;23;20161;-69
2021/06/05 04:21:25;;;;;;;7.30;6.60;;;13.60;99.90;;;;;;7613347;23;20172;-69
2021/06/05 04:24:27;;;;;;;6.60;6.07;;;13.70;99.90;;;;;;7639309;23;20192;-69
2021/06/05 04:27:30;;;;;;;8.80;6.93;;;13.80;99.90;;;;;;7613531;23;20512;-69
2021/06/05 04:30:34;;;;;;;7.43;6.73;;;13.90;99.90;;;;;;7614061;23;20236;-69
2021/06/05 04:33:37;;;;;;;6.60;6.00;;;14.00;99.90;;;;;;7638804;23;20168;-69
2021/06/05 04:36:39;;;;;;;7.77;7.07;;;14.10;99.90;;;;;;7639003;23;20184;-69
2021/06/05 04:39:41;;;;;;;7.63;7.03;;;14.20;99.90;;;;;;7638841;23;20177;-69
2021/06/05 04:42:43;;;;;;;6.80;6.30;;;14.30;99.90;;;;;;7639368;23;20227;-69
2021/06/05 04:45:47;;;;;;;7.57;6.90;;;14.50;99.90;;;;;;7639491;23;20192;-69
2021/06/05 04:48:49;;;;;;;7.30;6.33;;;14.60;99.90;;;;;;7638254;23;20180;-69
2021/06/05 04:51:51;;;;;;;7.10;6.43;;;14.60;99.90;;;;;;7612983;23;20658;-69
2021/06/05 04:54:53;;;;;;;7.10;6.50;;;14.70;99.90;;;;;;7639270;23;20557;-69
2021/06/05 04:57:56;;;;;;;6.07;5.57;;;14.70;99.90;;;;;;7639046;23;20243;-69
2021/06/05 05:00:59;;;;;;;6.57;6.00;;;14.80;99.90;;;;;;7612937;23;20179;-69
2021/06/05 05:04:02;;;;;;;7.00;6.30;;;14.90;99.90;;;;;;7638857;23;20173;-70
2021/06/05 05:07:04;;;;;;;6.53;5.93;;;15.00;99.90;;;;;;7613216;23;20176;-70
2021/06/05 05:10:07;;;;;;;6.57;6.03;;;15.20;99.90;;;;;;7638886;23;20247;-69
2021/06/05 05:13:13;;;;;;;7.10;6.47;;;15.30;99.90;;;;;;7613327;23;20173;-70
2021/06/05 05:16:16;;;;;;;6.07;5.57;;;15.30;99.90;;;;;;7638913;23;20149;-69
2021/06/05 05:19:18;;;;;;;7.13;6.50;;;15.50;99.90;;;;;;7588503;23;20181;-69
2021/06/05 05:22:20;;;;;;;6.53;5.90;;;15.60;99.90;;;;;;7615064;23;20216;-69
2021/06/05 05:25:23;;;;;;;6.27;5.67;;;15.70;99.90;;;;;;7640914;23;20179;-69
2021/06/05 05:28:26;;;;;;;6.23;5.63;;;15.80;99.90;;;;;;7641038;23;20185;-69
2021/06/05 05:31:30;;;;;;;6.30;5.70;;;16.00;99.90;;;;;;7640524;23;20161;-70
2021/06/05 05:34:32;;;;;;;6.60;6.00;;;16.20;99.90;;;;;;7640946;23;20236;-69
2021/06/05 05:37:34;;;;;;;6.37;5.77;;;16.30;99.90;;;;;;7614979;23;20223;-69
2021/06/05 05:40:39;;;;;;;6.20;5.60;;;16.50;99.90;;;;;;7614492;23;20172;-69
2021/06/05 05:43:41;;;;;;;6.23;5.53;;;16.80;99.90;;;;;;7640844;23;20165;-70
2021/06/05 05:46:43;;;;;;;6.17;5.57;;;17.00;99.90;;;;;;7640408;23;20643;-70
2021/06/05 05:49:46;;;;;;;5.60;5.10;;;17.10;99.90;;;;;;7640776;23;20663;-69
2021/06/05 05:52:48;;;;;;;5.70;5.20;;;17.20;99.90;;;;;;7640744;23;20208;-69
2021/06/05 05:55:50;;;;;;;6.03;5.53;;;17.20;99.90;;;;;;7640798;23;20618;-69
2021/06/05 05:58:55;;;;;;;6.63;5.60;;;17.20;99.90;;;;;;7582564;23;20207;-69
2021/06/05 06:01:58;;;;;;;5.00;4.60;;;17.20;99.90;;;;;;7577809;23;20179;-69
2021/06/05 06:05:00;;;;;;;5.93;5.33;;;17.20;99.90;;;;;;7578165;23;20232;-69
2021/06/05 06:08:05;;;;;;;6.00;5.50;;;17.10;99.90;;;;;;7553933;23;20217;-69
2021/06/05 06:11:11;;;;;;;5.20;4.80;;;17.10;99.90;;;;;;7554341;23;20178;-69
2021/06/05 06:14:15;;;;;;;6.90;5.30;;;17.00;99.90;;;;;;7604039;23;20218;-69
2021/06/05 06:17:17;;;;;;;6.17;5.63;;;17.00;99.90;;;;;;7553464;23;20217;-69
2021/06/05 06:20:24;;;;;;;6.13;5.63;;;17.00;99.90;;;;;;7603838;23;20529;-70
2021/06/05 06:23:30;;;;;;;8.13;5.87;;;17.10;99.90;;;;;;7552939;23;20637;-69
2021/06/05 06:26:32;;;;;;;6.60;5.87;;;17.20;99.90;;;;;;7603824;23;20158;-69
2021/06/05 06:29:35;;;;;;;6.90;6.20;;;17.30;99.90;;;;;;7577186;23;20652;-70
2021/06/05 06:32:37;;;;;;;5.50;5.00;;;17.40;99.90;;;;;;7602503;23;20189;-69
2021/06/05 06:35:40;;;;;;;6.97;5.80;;;17.60;99.90;;;;;;7603376;23;20172;-69
2021/06/05 06:38:45;;;;;;;5.70;5.20;;;17.90;99.90;;;;;;7577033;23;20171;-69
2021/06/05 06:41:47;;;;;;;5.63;5.13;;;18.20;99.90;;;;;;7577619;23;20173;-69
2021/06/05 06:44:49;;;;;;;5.60;5.13;;;18.50;99.90;;;;;;7602840;23;20176;-69
2021/06/05 06:47:52;;;;;;;5.97;5.33;;;18.80;99.90;;;;;;7603314;23;20189;-69
2021/06/05 06:50:55;;;;;;;5.37;4.87;;;19.00;99.90;;;;;;7603443;23;20173;-69
2021/06/05 06:53:57;;;;;;;4.97;4.57;;;19.30;99.90;;;;;;7602953;23;20248;-69
2021/06/05 06:57:00;;;;;;;5.03;4.53;;;19.60;99.90;;;;;;7586332;23;20653;-70
2021/06/05 07:00:07;;;;;;;4.50;4.20;;;19.90;99.90;;;;;;7639405;23;20185;-69
2021/06/05 07:03:10;;;;;;;5.70;4.00;;;20.10;99.90;;;;;;7614377;23;20164;-69
2021/06/05 07:06:13;;;;;;;4.20;3.80;;;20.20;99.90;;;;;;7639771;23;20169;-69
2021/06/05 07:09:15;;;;;;;4.07;3.77;;;20.20;99.90;;;;;;7639068;23;20193;-69
2021/06/05 07:12:18;;;;;;;5.00;4.20;;;20.20;99.90;;;;;;7640436;23;20160;-69
2021/06/05 07:15:20;;;;;;;4.30;4.00;;;20.40;99.90;;;;;;7613384;23;20169;-69
2021/06/05 07:18:24;;;;;;;4.40;3.70;;;20.80;99.90;;;;;;7640029;23;20501;-69
2021/06/05 07:21:26;;;;;;;3.80;3.50;;;21.10;99.90;;;;;;7639595;23;20244;-69
2021/06/05 07:24:29;;;;;;;3.20;3.00;;;21.50;99.90;;;;;;7612839;23;20177;-69
2021/06/05 07:27:31;;;;;;;5.27;4.00;;;21.60;99.90;;;;;;7638858;23;20175;-69
2021/06/05 07:30:33;;;;;;;3.90;3.60;;;21.70;99.90;;;;;;7613292;23;20168;-69
2021/06/05 07:33:37;;;;;;;3.47;3.13;;;21.90;99.90;;;;;;7613343;23;20191;-69
2021/06/05 07:36:45;;;;;;;3.37;3.07;;;22.20;98.00;;;;;;7588408;23;20195;-70
2021/06/05 07:39:48;;;;;;;3.90;3.37;;;22.60;96.60;;;;;;7613800;23;20641;-70
2021/06/05 07:42:50;;;;;;;3.90;3.30;;;23.00;96.50;;;;;;7639383;23;20185;-70
2021/06/05 07:45:54;;;;;;;3.43;2.80;;;23.40;95.50;;;;;;7612637;23;20701;-69
2021/06/05 07:48:57;;;;;;;3.50;3.20;;;23.70;95.20;;;;;;7639067;23;20189;-69
2021/06/05 07:52:00;;;;;;;3.43;3.13;;;23.80;95.70;;;;;;7639069;23;20177;-70
2021/06/05 07:55:04;;;;;;;3.20;3.00;;;23.90;96.40;;;;;;7613361;23;20180;-70
2021/06/05 07:58:06;;;;;;;3.40;3.10;;;24.00;96.70;;;;;;7613007;23;20287;-69
2021/06/05 08:01:09;;;;;;;3.73;2.73;;;24.10;96.30;;;;;;7612395;23;20590;-70
2021/06/05 08:04:11;;;;;;;4.00;3.60;;;24.40;96.20;;;;;;7612933;23;20176;-69
2021/06/05 08:07:14;;;;;;;3.33;3.13;;;24.60;96.20;;;;;;7638575;23;20173;-69
2021/06/05 08:10:17;;;;;;;3.67;3.37;;;24.90;94.20;;;;;;7639092;23;20191;-69
2021/06/05 08:13:20;;;;;;;3.60;3.30;;;25.00;92.60;;;;;;7639104;23;20176;-69
2021/06/05 08:16:22;;;;;;;3.37;3.07;;;25.10;91.00;;;;;;7639256;23;20167;-69
2021/06/05 08:19:24;;;;;;;3.20;3.00;;;25.40;87.00;;;;;;7588432;23;20195;-69
2021/06/05 08:22:27;;;;;;;2.87;2.67;;;25.60;84.60;;;;;;7638250;23;20500;-69
2021/06/05 08:25:29;;;;;;;4.23;2.93;;;25.90;81.40;;;;;;7638791;23;20224;-69
2021/06/05 08:28:31;;;;;;;4.72;3.33;;;26.00;80.90;;;;;;7588400;23;20656;-70
2021/06/05 08:31:33;;;;;;;4.88;2.92;;;26.30;79.40;;;;;;7639568;23;20172;-71
2021/06/05 08:34:36;;;;;;;3.67;3.38;;;26.50;76.40;;;;;;7640290;23;20161;-70
2021/06/05 08:37:39;;;;;;;3.20;3.00;;;26.80;73.20;;;;;;7638964;23;20188;-70
2021/06/05 08:41:12;;;;;;;4.10;3.70;;;27.20;70.60;;;;;;7613182;23;20169;-70
2021/06/05 08:44:36;;;;;;;3.40;3.08;;;27.60;67.80;;;;;;7639581;23;20482;-71
2021/06/05 08:47:38;;;;;;;4.43;3.25;;;28.00;66.40;;;;;;7612910;23;20180;-71
2021/06/05 08:50:41;;;;;;;3.58;3.35;;;28.20;66.60;;;;;;7638984;23;20189;-71
2021/06/05 08:53:43;;;;;;;3.85;3.15;;;28.50;66.90;;;;;;7639510;23;20165;-71
2021/06/05 08:56:46;;;;;;;3.53;3.33;;;28.80;64.70;;;;;;7640756;23;20593;-71
2021/06/05 08:59:48;;;;;;;5.05;3.60;;;29.10;63.20;;;;;;7615063;23;20169;-71
2021/06/05 09:02:55;;;;;;;4.32;3.40;;;29.30;62.90;;;;;;7615642;23;20173;-70
2021/06/05 09:06:07;;;;;;;3.50;3.20;;;29.60;62.70;;;;;;7640858;23;20173;-71
2021/06/05 09:09:28;;;;;;;4.93;3.45;;;29.70;61.00;;;;;;7615002;23;20553;-71
2021/06/05 09:12:30;;;;;;;3.75;3.33;;;30.00;60.60;;;;;;7615483;23;20233;-70
2021/06/05 09:15:35;;;;;;;4.03;3.63;;;30.10;57.20;;;;;;7614428;23;20280;-70
2021/06/05 09:18:55;;;;;;;3.58;3.08;;;30.30;56.10;;;;;;7642043;23;20624;-71
2021/06/05 09:22:07;;;;;;;3.70;3.40;;;30.40;55.90;;;;;;7615554;23;20161;-70
2021/06/05 09:25:40;;;;;;;3.45;3.25;;;30.50;56.40;;;;;;7615278;23;20177;-70
2021/06/05 09:28:43;;;;;;;4.80;3.00;;;30.80;55.30;;;;;;7640342;23;20169;-70
2021/06/05 09:32:07;;;;;;;5.32;3.20;;;31.30;55.50;;;;;;7641238;23;20165;-70
2021/06/05 09:35:11;;;;;;;4.13;3.80;;;31.80;54.80;;;;;;7640744;23;20593;-70
2021/06/05 09:38:30;;;;;;;3.28;3.05;;;32.00;52.60;;;;;;7615051;23;20528;-70
2021/06/05 09:41:35;;;;;;;3.67;3.38;;;32.20;51.80;;;;;;7615062;23;20165;-70
2021/06/05 09:44:49;;;;;;;3.80;3.50;;;32.30;53.00;;;;;;7640401;23;20244;-70
2021/06/05 09:48:12;;;;;;;4.22;3.80;;;32.30;53.10;;;;;;7641001;23;20477;-70
2021/06/05 09:51:34;;;;;;;5.05;3.53;;;32.20;51.70;;;;;;7614446;23;20674;-70
2021/06/05 09:54:50;;;;;;;5.60;3.70;;;32.10;51.80;;;;;;7640813;23;20525;-70
2021/06/05 09:57:53;;;;;;;4.05;3.75;;;32.30;52.20;;;;;;7640023;23;20256;-71
2021/06/05 10:01:15;;;;;;;5.72;4.00;;;32.30;52.00;;;;;;7640505;23;20164;-70
2021/06/05 10:04:21;;;;;;;13.85;4.20;;;32.50;52.10;;;;;;7615522;23;20602;-70
2021/06/05 10:07:28;;;;;;;5.40;4.03;;;32.60;51.80;;;;;;7614311;23;20162;-70
2021/06/05 10:10:40;;;;;;;5.80;4.18;;;32.60;51.60;;;;;;7640578;23;20199;-70
2021/06/05 10:13:45;;;;;;;4.35;3.60;;;32.50;51.50;;;;;;7640438;23;20156;-70
2021/06/05 10:17:01;;;;;;;3.95;3.55;;;32.60;51.20;;;;;;7642224;23;21008;-71
2021/06/05 10:20:47;;;;;;;5.97;3.80;;;32.70;51.50;;;;;;7641158;23;20470;-70
2021/06/05 10:23:53;;;;;;;4.18;3.63;;;32.70;47.80;;;;;;7493186;23;20183;-70
2021/06/05 10:26:59;;;;;;;3.83;3.53;;;32.40;49.00;;;;;;7493906;23;20495;-70
2021/06/05 10:30:08;;;;;;;3.90;3.60;;;32.40;49.00;;;;;;7470151;23;20201;-71
2021/06/05 10:33:33;;;;;;;4.43;4.03;;;32.70;49.40;;;;;;7493369;23;20222;-71
2021/06/05 10:36:43;;;;;;;4.47;3.72;;;32.90;48.00;;;;;;7491919;23;20212;-71
2021/06/05 10:39:46;;;;;;;4.68;3.80;;;32.70;47.90;;;;;;7493415;23;20235;-71
2021/06/05 10:42:51;;;;;;;3.92;3.63;;;32.50;49.60;;;;;;7468292;23;20179;-71
2021/06/05 10:45:57;;;;;;;4.68;3.45;;;33.00;49.60;;;;;;7470623;23;20179;-70
2021/06/05 10:49:35;;;;;;;3.75;3.45;;;33.40;49.20;;;;;;7493123;23;20183;-70
2021/06/05 10:52:55;;;;;;;3.58;3.28;;;34.00;47.90;;;;;;7494330;23;20168;-70
2021/06/05 10:56:01;;;;;;;3.65;3.35;;;34.30;46.70;;;;;;7495169;23;20160;-71
2021/06/05 10:59:06;;;;;;;5.18;3.28;;;34.70;46.40;;;;;;7641106;23;20196;-71
2021/06/05 11:02:09;;;;;;;3.83;3.53;;;35.00;45.60;;;;;;7641933;23;20161;-71
2021/06/05 11:05:18;;;;;;;3.10;2.90;;;34.80;45.00;;;;;;7614608;23;20536;-71
2021/06/05 11:08:20;;;;;;;3.50;3.20;;;34.70;43.70;;;;;;7641020;23;20153;-70
2021/06/05 11:11:22;;;;;;;5.78;3.13;;;34.80;47.00;;;;;;7614538;23;20191;-70
2021/06/05 11:14:24;;;;;;;3.45;2.80;;;34.90;44.60;;;;;;7640615;23;20173;-70
2021/06/05 11:17:41;;;;;;;2.92;2.63;;;35.00;43.50;;;;;;7639929;23;20184;-71
2021/06/05 11:20:43;;;;;;;4.15;2.70;;;35.30;42.90;;;;;;7640016;23;20153;-70
2021/06/05 11:24:21;;;;;;;3.75;2.72;;;35.30;41.90;;;;;;7640828;23;20223;-70
2021/06/05 11:27:38;;;;;;;3.05;2.58;;;35.30;40.50;;;;;;7634862;23;20272;-71
2021/06/05 11:30:40;;;;;;;2.88;2.58;;;35.50;40.90;;;;;;7640552;23;20647;-70
2021/06/05 11:33:44;;;;;;;3.05;2.50;;;35.70;39.30;;;;;;7613100;23;20251;-70
2021/06/05 11:36:48;;;;;;;2.70;2.50;;;35.90;41.30;;;;;;7613704;23;20216;-70
2021/06/05 11:39:57;;;;;;;3.28;2.40;;;35.70;38.60;;;;;;7613713;23;20172;-70
2021/06/05 11:43:00;;;;;;;2.85;2.55;;;36.00;40.20;;;;;;7613514;23;20235;-70
2021/06/05 11:46:05;;;;;;;2.70;2.50;;;36.20;40.40;;;;;;7613842;23;20164;-70
2021/06/05 11:49:09;;;;;;;2.95;2.70;;;36.00;39.70;;;;;;7638897;23;20281;-68
2021/06/05 11:52:26;;;;;;;4.70;3.10;;;35.80;41.30;;;;;;7639037;23;20169;-68
2021/06/05 11:55:46;;;;;;;3.03;2.65;;;35.80;40.60;;;;;;7613154;23;20224;-70
2021/06/05 11:58:48;;;;;;;3.35;2.90;;;35.90;40.50;;;;;;7639118;23;20192;-69
2021/06/05 12:01:51;;;;;;;3.38;2.97;;;35.80;39.50;;;;;;7613142;23;20195;-70
2021/06/05 12:05:19;;;;;;;4.10;2.80;;;35.60;39.30;;;;;;7638373;23;20510;-70
2021/06/05 12:08:27;;;;;;;3.00;2.70;;;35.90;39.60;;;;;;7638314;23;20272;-72
2021/06/05 12:11:45;;;;;;;2.60;2.38;;;36.00;38.40;;;;;;7638788;23;20159;-72
2021/06/05 12:14:53;;;;;;;2.08;1.98;;;35.60;37.60;;;;;;7612780;23;20161;-72
2021/06/05 12:18:08;;;;;;;3.15;2.45;;;35.70;39.30;;;;;;7638416;23;20153;-71
2021/06/05 12:21:28;;;;;;;2.95;2.60;;;36.00;38.60;;;;;;7638903;23;20240;-71
2021/06/05 12:24:31;;;;;;;2.55;2.35;;;36.00;38.20;;;;;;7638880;23;20161;-71
2021/06/05 12:27:38;;;;;;;4.30;2.50;;;36.20;38.60;;;;;;7638385;23;20165;-71
2021/06/05 12:30:44;;;;;;;3.45;2.40;;;36.40;37.20;;;;;;7614113;23;20189;-72
2021/06/05 12:34:06;;;;;;;3.10;2.55;;;36.50;36.90;;;;;;7614867;23;20248;-72
2021/06/05 12:37:19;;;;;;;3.05;2.30;;;36.30;35.00;;;;;;7641405;23;20185;-72
2021/06/05 12:40:45;;;;;;;2.25;2.10;;;36.00;34.70;;;;;;7640473;23;20157;-71
2021/06/05 12:43:48;;;;;;;2.78;2.58;;;36.00;35.60;;;;;;7615157;23;20154;-71
2021/06/05 12:46:51;;;;;;;2.40;2.20;;;36.40;36.20;;;;;;7615257;23;20259;-72
2021/06/05 12:49:53;;;;;;;3.00;2.70;;;36.40;36.00;;;;;;7640524;23;20192;-70
2021/06/05 12:52:59;;;;;;;3.20;2.60;;;36.40;36.80;;;;;;7615063;23;20172;-71
2021/06/05 12:56:32;;;;;;;2.55;2.35;;;36.10;36.40;;;;;;7614971;23;20606;-72
2021/06/05 12:59:36;;;;;;;2.30;2.10;;;36.40;36.00;;;;;;7615180;23;20169;-72
2021/06/05 13:02:39;;;;;;;2.85;2.60;;;36.90;37.40;;;;;;7640692;23;20180;-72
2021/06/05 13:06:05;;;;;;;3.67;2.40;;;36.90;35.90;;;;;;7641303;23;20175;-72
2021/06/05 13:09:24;;;;;;;3.25;2.55;;;36.70;35.10;;;;;;7641351;23;20185;-72
2021/06/05 13:12:30;;;;;;;3.05;2.47;;;37.00;35.30;;;;;;7615399;23;20212;-72
2021/06/05 13:15:38;;;;;;;2.80;2.60;;;37.10;35.20;;;;;;7641743;23;20153;-73
2021/06/05 13:18:44;;;;;;;3.00;2.80;;;36.90;34.40;;;;;;7639652;23;20146;-73
2021/06/05 13:22:22;;;;;;;2.85;2.58;;;36.80;35.50;;;;;;7640612;23;20323;-72
2021/06/05 13:25:28;;;;;;;4.20;2.72;;;36.80;36.20;;;;;;7614250;23;20184;-72
2021/06/05 13:28:34;;;;;;;2.75;2.55;;;36.30;36.30;;;;;;7640800;23;20162;-72
2021/06/05 13:31:40;;;;;;;3.33;2.50;;;36.20;36.30;;;;;;7614986;23;20221;-72
2021/06/05 13:34:45;;;;;;;2.60;2.40;;;36.00;36.50;;;;;;7640908;23;20150;-72
2021/06/05 13:37:54;;;;;;;2.40;2.30;;;35.80;39.20;;;;;;7615439;23;20195;-72
2021/06/05 13:41:00;;;;;;;2.67;2.50;;;35.70;41.20;;;;;;7614118;23;20175;-73
2021/06/05 13:44:02;;;;;;;2.53;2.25;;;35.30;41.90;;;;;;7614967;23;20180;-72
2021/06/05 13:47:09;;;;;;;2.95;2.75;;;34.90;42.80;;;;;;7640176;23;20176;-73
2021/06/05 13:50:14;;;;;;;3.30;2.97;;;34.60;43.40;;;;;;7640945;23;20613;-72
2021/06/05 13:53:29;;;;;;;2.50;2.30;;;34.40;43.50;;;;;;7640572;23;20228;-73
2021/06/05 13:56:33;;;;;;;2.70;2.50;;;34.30;43.90;;;;;;7614665;23;20173;-73
2021/06/05 13:59:35;;;;;;;3.28;3.00;;;34.30;44.10;;;;;;7640291;23;20157;-72
2021/06/05 14:02:39;;;;;;;3.45;3.03;;;34.50;43.60;;;;;;7613122;23;20179;-73
2021/06/05 14:05:42;;;;;;;4.78;3.63;;;34.60;43.40;;;;;;7640192;23;20173;-75
2021/06/05 14:08:45;;;;;;;5.88;4.35;;;34.80;43.50;;;;;;7614477;23;20173;-72
2021/06/05 14:11:47;;;;;;;4.30;3.90;;;34.80;41.80;;;;;;7642226;23;20543;-73
2021/06/05 14:14:50;;;;;;;8.52;3.95;;;34.90;43.10;;;;;;7641551;23;20185;-73
2021/06/05 14:17:53;;;;;;;7.75;4.75;;;35.30;43.70;;;;;;7642293;23;20171;-73
2021/06/05 14:20:58;;;;;;;5.57;5.07;;;35.90;43.00;;;;;;7617514;23;20253;-72
2021/06/05 14:24:00;;;;;;;7.78;4.82;;;35.30;41.00;;;;;;7617787;23;20196;-73
2021/06/05 14:27:04;;;;;;;5.78;4.70;;;34.50;41.70;;;;;;7614450;23;20176;-72
2021/06/05 14:30:10;;;;;;;5.13;4.60;;;34.70;41.80;;;;;;7642840;23;20185;-72
2021/06/05 14:33:14;;;;;;;5.40;4.10;;;34.80;42.40;;;;;;7616726;23;20160;-72
2021/06/05 14:36:17;;;;;;;8.75;4.30;;;34.70;44.40;;;;;;7615036;23;20272;-70
2021/06/05 14:39:19;;;;;;;5.43;4.93;;;34.40;46.20;;;;;;7641417;23;20188;-72
2021/06/05 14:42:22;;;;;;;5.18;4.53;;;33.90;45.60;;;;;;7641660;23;20262;-74
2021/06/05 14:45:33;;;;;;;9.80;4.40;;;33.60;44.70;;;;;;7641179;23;20168;-72
2021/06/05 14:48:36;;;;;;;4.60;4.25;;;33.70;46.90;;;;;;7641051;23;20149;-74
2021/06/05 14:51:39;;;;;;;5.30;4.80;;;33.80;47.00;;;;;;7641395;23;20187;-71
2021/06/05 14:54:41;;;;;;;6.75;4.60;;;33.70;47.20;;;;;;7589785;23;20173;-73
2021/06/05 14:57:45;;;;;;;4.60;4.30;;;33.50;47.80;;;;;;7641397;23;20192;-72
2021/06/05 15:00:47;;;;;;;4.95;4.55;;;33.20;48.00;;;;;;7614563;23;20563;-71
2021/06/05 15:03:50;;;;;;;5.32;4.00;;;32.90;48.40;;;;;;7614211;23;20557;-71
2021/06/05 15:06:54;;;;;;;5.13;4.53;;;32.50;49.00;;;;;;7640417;23;20172;-72
2021/06/05 15:09:56;;;;;;;5.30;4.80;;;32.20;49.60;;;;;;7639798;23;20188;-70
2021/06/05 15:12:58;;;;;;;5.15;4.65;;;32.00;50.50;;;;;;7589305;23;20176;-72
2021/06/05 15:16:00;;;;;;;4.80;4.40;;;31.90;51.00;;;;;;7639489;23;20176;-72
2021/06/05 15:19:04;;;;;;;5.32;4.40;;;31.70;51.30;;;;;;7614374;23;20177;-72
2021/06/05 15:22:07;;;;;;;5.00;4.45;;;31.40;51.80;;;;;;7640640;23;20169;-72
2021/06/05 15:25:12;;;;;;;5.55;5.00;;;31.20;51.60;;;;;;7640298;23;20219;-72
2021/06/05 15:28:16;;;;;;;5.43;4.40;;;31.00;52.00;;;;;;7614167;23;20188;-73
2021/06/05 15:31:19;;;;;;;4.57;4.18;;;30.80;52.30;;;;;;7641040;23;20184;-71
2021/06/05 15:34:23;;;;;;;4.68;4.28;;;30.50;52.80;;;;;;7641377;23;20499;-71
2021/06/05 15:37:25;;;;;;;7.03;4.85;;;30.30;53.60;;;;;;7640237;23;20184;-70
2021/06/05 15:40:40;;;;;;;4.57;4.18;;;30.10;54.00;;;;;;7592577;23;20165;-71
2021/06/05 15:43:42;;;;;;;5.18;4.22;;;29.90;54.30;;;;;;7640683;23;20185;-71
2021/06/05 15:46:44;;;;;;;7.32;4.60;;;29.70;54.70;;;;;;7640874;23;20176;-70
2021/06/05 15:49:48;;;;;;;4.70;4.30;;;29.50;55.20;;;;;;7612473;23;20203;-70
2021/06/05 15:52:50;;;;;;;4.50;4.10;;;29.40;55.50;;;;;;7639961;23;20165;-70
2021/06/05 15:55:53;;;;;;;7.95;4.90;;;29.20;56.00;;;;;;7640637;23;20168;-70
2021/06/05 15:58:56;;;;;;;6.13;5.53;;;29.00;56.10;;;;;;7639157;23;20188;-70
2021/06/05 16:01:58;;;;;;;5.72;5.20;;;28.70;56.60;;;;;;7638927;23;20173;-70
2021/06/05 16:05:01;;;;;;;5.25;4.82;;;28.20;55.30;;;;;;7614508;23;20247;-70
2021/06/05 16:08:03;;;;;;;6.03;5.13;;;27.40;55.30;;;;;;7639167;23;20220;-70
2021/06/05 16:11:05;;;;;;;5.68;5.15;;;26.80;55.50;;;;;;7614085;23;20201;-69
2021/06/05 16:14:08;;;;;;;4.43;4.03;;;26.40;56.30;;;;;;7614425;23;20528;-70